Thunder radar more information blitzortung!


Radar de pluja more information rain snow radar


Visita la nostra xarxa de llocs de meteo:

Template documentation
and downloads

And another site



Extreme low temperature From: 13-12-2017 09:00 Until: 09:59 warning for: Extreme low temperature Level: Yellow info button

Pagina Historial Weather Underground text

Diari Resum Octubre 13, 2017 Unitats:  Mètric    Imperial   Tant
« Previous Dia
SegĂźent Dia »
Diari Setmana Mensual Anual Personalitzada
  Maxima: Minima: Media:
Temperatura: 25.5 °C 15.0 °C 19.7 °C
Punt de rosada: 17.7 °C 13.5 °C 15.8 °C
Humitat: 95 % 59 % 79 %
Wind Speed: 16.7 km/h 0.0 km/h 4.3 km/h
RĂ fegues de vent: 16.7 km/h - -
Vent:- - SSE
Pression baro: 1027.0 hPa 1023.9 hPa -
Precipitacions: 0.0 mm    
Historical Graphs
 
 
Dades de taula per Octubre 13, 2017
Temps Temperatura Punt de rosada Pression baro Vent Wind Speed RĂ fegues de vent Humitat Rainfall Rate (Hourly)
00:01 18.9 °C 16.5 °C 1026.0 hPa SW 5.6 km/h 5.6 km/h 86 % 0.0 mm
00:06 18.9 °C 16.5 °C 1026.0 hPa WNW 1.9 km/h   86 % 0.0 mm
00:11 18.9 °C 16.5 °C 1026.0 hPa NW 1.9 km/h 1.9 km/h 86 % 0.0 mm
00:16 18.9 °C 16.7 °C 1026.0 hPa WSW 3.7 km/h 3.7 km/h 87 % 0.0 mm
00:21 18.8 °C 16.6 °C 1026.0 hPa Calm     87 % 0.0 mm
00:26 18.8 °C 16.8 °C 1026.0 hPa Calm     88 % 0.0 mm
00:31 18.8 °C 16.8 °C 1026.0 hPa Calm     88 % 0.0 mm
00:36 18.8 °C 16.8 °C 1026.0 hPa WSW 1.9 km/h   88 % 0.0 mm
00:41 18.8 °C 16.8 °C 1026.0 hPa Calm     88 % 0.0 mm
00:46 18.8 °C 16.8 °C 1026.0 hPa Calm     88 % 0.0 mm
00:51 18.8 °C 16.8 °C 1026.0 hPa Calm     88 % 0.0 mm
00:56 18.8 °C 16.8 °C 1026.0 hPa Calm     88 % 0.0 mm
01:01 18.8 °C 16.8 °C 1026.0 hPa Calm     88 % 0.0 mm
01:06 18.7 °C 16.7 °C 1026.0 hPa WSW 1.9 km/h 1.9 km/h 88 % 0.0 mm
01:11 18.7 °C 16.7 °C 1026.0 hPa SW 1.9 km/h   88 % 0.0 mm
01:16 18.6 °C 16.6 °C 1026.0 hPa Calm     88 % 0.0 mm
01:21 18.7 °C 16.8 °C 1026.0 hPa Calm     89 % 0.0 mm
01:26 18.8 °C 16.9 °C 1026.0 hPa SW 1.9 km/h   89 % 0.0 mm
01:31 18.8 °C 16.9 °C 1026.0 hPa SW 1.9 km/h   89 % 0.0 mm
01:36 18.9 °C 17.1 °C 1026.0 hPa West 3.7 km/h 3.7 km/h 89 % 0.0 mm
01:37 18.9 °C 17.1 °C 1026.0 hPa West 2.3 km/h 2.3 km/h 89 % 0.0 mm
01:42 19.0 °C 16.9 °C 1024.9 hPa WSW 3.7 km/h 3.7 km/h 88 % 0.0 mm
01:47 19.0 °C 16.9 °C 1024.9 hPa SW 2.3 km/h 2.3 km/h 88 % 0.0 mm
01:52 18.9 °C 17.1 °C 1024.9 hPa SW 3.7 km/h   89 % 0.0 mm
01:57 18.8 °C 16.8 °C 1026.0 hPa SW 3.7 km/h 3.7 km/h 88 % 0.0 mm
02:02 18.8 °C 16.8 °C 1026.0 hPa WSW 5.6 km/h 5.6 km/h 88 % 0.0 mm
02:07 18.9 °C 16.9 °C 1026.0 hPa SW 3.7 km/h 3.7 km/h 88 % 0.0 mm
02:12 18.9 °C 16.9 °C 1026.0 hPa West 1.9 km/h 1.9 km/h 88 % 0.0 mm
02:17 18.9 °C 16.9 °C 1026.0 hPa WSW 1.9 km/h   88 % 0.0 mm
02:22 18.9 °C 16.9 °C 1026.0 hPa SW 4.7 km/h   88 % 0.0 mm
02:27 19.0 °C 16.8 °C 1026.0 hPa West 3.7 km/h 3.7 km/h 87 % 0.0 mm
02:32 19.0 °C 16.8 °C 1026.0 hPa WSW 5.6 km/h 5.6 km/h 87 % 0.0 mm
02:37 19.0 °C 16.8 °C 1026.0 hPa West 3.7 km/h 3.7 km/h 87 % 0.0 mm
02:42 18.9 °C 16.9 °C 1026.0 hPa WSW 3.7 km/h 3.9 km/h 88 % 0.0 mm
02:47 18.8 °C 16.8 °C 1026.0 hPa WSW 5.6 km/h 5.6 km/h 88 % 0.0 mm
02:52 18.7 °C 16.7 °C 1026.0 hPa SW 2.3 km/h 2.3 km/h 88 % 0.0 mm
02:57 18.7 °C 16.7 °C 1026.0 hPa WSW 3.7 km/h 3.7 km/h 88 % 0.0 mm
03:02 18.6 °C 16.6 °C 1026.0 hPa West 3.7 km/h   88 % 0.0 mm
03:07 18.5 °C 16.5 °C 1026.0 hPa Calm     88 % 0.0 mm
03:12 18.0 °C 15.8 °C 1026.0 hPa NNE 3.2 km/h 3.2 km/h 87 % 0.0 mm
03:17 17.8 °C 15.6 °C 1026.0 hPa NNE 1.9 km/h 1.9 km/h 87 % 0.0 mm
03:22 17.6 °C 15.4 °C 1026.0 hPa NE 1.9 km/h   87 % 0.0 mm
03:27 17.5 °C 15.3 °C 1024.9 hPa Calm     87 % 0.0 mm
03:32 17.4 °C 15.4 °C 1024.9 hPa Calm     88 % 0.0 mm
03:37 17.4 °C 15.4 °C 1024.9 hPa Calm     88 % 0.0 mm
03:42 17.3 °C 15.3 °C 1026.0 hPa Calm     88 % 0.0 mm
03:47 17.1 °C 15.1 °C 1026.0 hPa Calm     88 % 0.0 mm
03:52 16.9 °C 14.9 °C 1026.0 hPa SW 3.7 km/h 3.7 km/h 88 % 0.0 mm
03:57 16.8 °C 14.8 °C 1026.0 hPa WSW 3.7 km/h 3.7 km/h 88 % 0.0 mm
04:02 16.7 °C 14.7 °C 1026.0 hPa SW 1.9 km/h 1.9 km/h 88 % 0.0 mm
04:03 16.7 °C 14.7 °C 1026.0 hPa SW 1.9 km/h 1.9 km/h 88 % 0.0 mm
04:08 16.6 °C 14.6 °C 1026.0 hPa Calm     88 % 0.0 mm
04:13 16.6 °C 14.8 °C 1026.0 hPa WSW 3.5 km/h 3.5 km/h 89 % 0.0 mm
04:18 16.5 °C 14.7 °C 1026.0 hPa Calm     89 % 0.0 mm
04:23 16.5 °C 14.7 °C 1026.0 hPa WSW 3.7 km/h 3.7 km/h 89 % 0.0 mm
04:28 16.4 °C 14.6 °C 1026.0 hPa Calm     89 % 0.0 mm
04:33 16.4 °C 14.6 °C 1026.0 hPa SW 3.7 km/h 3.7 km/h 89 % 0.0 mm
04:38 16.2 °C 14.4 °C 1026.0 hPa SW 2.3 km/h   89 % 0.0 mm
04:43 16.1 °C 14.3 °C 1026.0 hPa SW 2.3 km/h 2.3 km/h 89 % 0.0 mm
04:48 16.1 °C 14.3 °C 1026.0 hPa SW 2.6 km/h 2.6 km/h 89 % 0.0 mm
04:53 16.0 °C 14.2 °C 1026.0 hPa Calm     89 % 0.0 mm
04:58 15.9 °C 14.1 °C 1026.0 hPa WSW 1.9 km/h 1.9 km/h 89 % 0.0 mm
05:03 15.9 °C 14.1 °C 1026.0 hPa WSW 2.3 km/h 2.3 km/h 89 % 0.0 mm
05:08 15.9 °C 14.3 °C 1026.0 hPa WSW 2.3 km/h   90 % 0.0 mm
05:13 15.8 °C 14.2 °C 1026.0 hPa WSW 2.6 km/h 2.6 km/h 90 % 0.0 mm
05:18 15.8 °C 14.0 °C 1026.0 hPa WSW 2.3 km/h 2.3 km/h 89 % 0.0 mm
05:23 15.6 °C 13.8 °C 1026.0 hPa WSW 2.6 km/h 2.6 km/h 89 % 0.0 mm
05:28 15.6 °C 13.8 °C 1024.9 hPa WSW 1.9 km/h 1.9 km/h 89 % 0.0 mm
05:33 15.6 °C 13.9 °C 1024.9 hPa SW 3.7 km/h 3.7 km/h 90 % 0.0 mm
05:38 15.5 °C 13.9 °C 1024.9 hPa SW 2.6 km/h 2.6 km/h 90 % 0.0 mm
05:43 15.5 °C 13.9 °C 1026.0 hPa SW 2.3 km/h 2.6 km/h 90 % 0.0 mm
05:48 15.4 °C 13.8 °C 1026.0 hPa SW 3.7 km/h 3.7 km/h 90 % 0.0 mm
05:53 15.3 °C 13.5 °C 1026.0 hPa SW 3.7 km/h 3.9 km/h 89 % 0.0 mm
05:58 15.3 °C 13.7 °C 1026.0 hPa SW 1.9 km/h 1.9 km/h 90 % 0.0 mm
06:03 15.3 °C 13.7 °C 1026.0 hPa SW 3.7 km/h 3.7 km/h 90 % 0.0 mm
06:08 15.3 °C 13.7 °C 1026.0 hPa Calm     90 % 0.0 mm
06:13 15.4 °C 13.9 °C 1026.0 hPa Calm     91 % 0.0 mm
06:23 15.4 °C 13.9 °C 1026.0 hPa Calm     91 % 0.0 mm
06:28 15.4 °C 13.9 °C 1026.0 hPa Calm     91 % 0.0 mm
06:33 15.3 °C 13.8 °C 1026.0 hPa Calm     91 % 0.0 mm
06:38 15.3 °C 13.8 °C 1026.0 hPa SW 1.9 km/h 2.3 km/h 91 % 0.0 mm
06:43 15.3 °C 13.8 °C 1026.0 hPa SW 2.3 km/h   91 % 0.0 mm
06:48 15.2 °C 13.7 °C 1026.0 hPa SW 2.3 km/h 2.3 km/h 91 % 0.0 mm
06:53 15.2 °C 13.7 °C 1026.0 hPa SW 3.9 km/h 3.9 km/h 91 % 0.0 mm
06:58 15.2 °C 13.7 °C 1026.0 hPa SW 3.7 km/h 3.7 km/h 91 % 0.0 mm
07:03 15.2 °C 13.7 °C 1026.0 hPa SW 3.9 km/h 3.9 km/h 91 % 0.0 mm
07:08 15.2 °C 13.7 °C 1026.0 hPa SW 3.7 km/h 3.7 km/h 91 % 0.0 mm
07:13 15.1 °C 13.7 °C 1026.0 hPa SW 3.7 km/h 3.7 km/h 91 % 0.0 mm
07:18 15.1 °C 13.7 °C 1026.0 hPa SSW 5.6 km/h 5.6 km/h 91 % 0.0 mm
07:23 15.1 °C 13.7 °C 1026.0 hPa SW 3.7 km/h 3.7 km/h 91 % 0.0 mm
07:28 15.0 °C 13.6 °C 1026.0 hPa SW 3.7 km/h 3.7 km/h 91 % 0.0 mm
07:33 15.1 °C 13.7 °C 1026.0 hPa SW 4.2 km/h 4.2 km/h 91 % 0.0 mm
07:38 15.2 °C 13.7 °C 1026.0 hPa WSW 5.6 km/h 5.6 km/h 91 % 0.0 mm
07:43 15.1 °C 13.8 °C 1026.0 hPa WSW 2.3 km/h 2.3 km/h 92 % 0.0 mm
07:48 15.1 °C 13.8 °C 1026.0 hPa SW 3.7 km/h 3.7 km/h 92 % 0.0 mm
07:53 15.1 °C 13.8 °C 1026.0 hPa SW 1.9 km/h 1.9 km/h 92 % 0.0 mm
07:58 15.1 °C 13.8 °C 1026.0 hPa Calm     92 % 0.0 mm
08:03 15.1 °C 14.0 °C 1026.0 hPa Calm     93 % 0.0 mm
08:08 15.0 °C 13.9 °C 1026.0 hPa Calm     93 % 0.0 mm
08:13 15.0 °C 13.9 °C 1026.0 hPa Calm     93 % 0.0 mm
08:18 15.0 °C 13.9 °C 1026.0 hPa Calm     93 % 0.0 mm
08:23 15.0 °C 13.9 °C 1026.0 hPa Calm     93 % 0.0 mm
08:28 15.1 °C 14.0 °C 1026.0 hPa Calm     93 % 0.0 mm
08:33 15.2 °C 14.1 °C 1026.0 hPa Calm     93 % 0.0 mm
08:38 15.3 °C 14.3 °C 1026.0 hPa Calm     94 % 0.0 mm
08:43 15.3 °C 14.3 °C 1026.0 hPa Calm     94 % 0.0 mm
08:48 15.1 °C 14.0 °C 1026.0 hPa WSW 3.7 km/h 3.7 km/h 93 % 0.0 mm
08:53 15.0 °C 13.9 °C 1026.0 hPa SW 2.3 km/h 2.3 km/h 93 % 0.0 mm
08:54 15.0 °C 13.9 °C 1026.0 hPa SW 3.7 km/h 3.7 km/h 93 % 0.0 mm
08:59 15.0 °C 13.9 °C 1026.0 hPa WSW 3.7 km/h 3.7 km/h 93 % 0.0 mm
09:04 15.1 °C 14.0 °C 1026.0 hPa SW 4.7 km/h 4.7 km/h 93 % 0.0 mm
09:09 15.2 °C 14.1 °C 1026.0 hPa SW 3.7 km/h 3.7 km/h 93 % 0.0 mm
09:14 15.3 °C 14.2 °C 1026.0 hPa SW 5.6 km/h 5.6 km/h 93 % 0.0 mm
09:19 15.4 °C 14.3 °C 1026.0 hPa WSW 5.3 km/h 5.3 km/h 93 % 0.0 mm
09:24 15.3 °C 14.2 °C 1026.0 hPa SW 5.6 km/h 5.6 km/h 93 % 0.0 mm
09:29 15.4 °C 14.3 °C 1026.0 hPa SSW 5.6 km/h 5.6 km/h 93 % 0.0 mm
09:34 15.5 °C 14.4 °C 1026.0 hPa SW 5.6 km/h 5.6 km/h 93 % 0.0 mm
09:39 15.7 °C 14.7 °C 1026.0 hPa SW 3.9 km/h 3.9 km/h 94 % 0.0 mm
09:44 15.8 °C 14.8 °C 1026.0 hPa SW 1.9 km/h   94 % 0.0 mm
09:49 15.9 °C 14.9 °C 1026.0 hPa SW 3.7 km/h 3.7 km/h 94 % 0.0 mm
09:54 16.2 °C 15.2 °C 1026.0 hPa SW 3.7 km/h 3.7 km/h 94 % 0.0 mm
09:59 16.4 °C 15.6 °C 1026.0 hPa SW 2.6 km/h 2.6 km/h 95 % 0.0 mm
10:04 16.6 °C 15.8 °C 1026.0 hPa SW 3.7 km/h 3.7 km/h 95 % 0.0 mm
10:09 16.6 °C 15.6 °C 1026.0 hPa SW 3.9 km/h 3.9 km/h 94 % 0.0 mm
10:14 16.9 °C 15.9 °C 1026.0 hPa SW 3.7 km/h 3.7 km/h 94 % 0.0 mm
10:19 17.0 °C 15.8 °C 1026.0 hPa WSW 3.9 km/h 3.9 km/h 93 % 0.0 mm
10:24 17.3 °C 16.2 °C 1026.0 hPa SW 3.7 km/h 3.7 km/h 93 % 0.0 mm
10:29 17.8 °C 16.7 °C 1026.0 hPa NE 5.3 km/h   93 % 0.0 mm
10:34 18.0 °C 16.7 °C 1026.0 hPa NE 7.4 km/h 7.4 km/h 92 % 0.0 mm
10:39 18.4 °C 16.7 °C 1026.0 hPa NE 5.6 km/h 5.6 km/h 90 % 0.0 mm
10:44 18.6 °C 16.8 °C 1026.0 hPa ENE 5.3 km/h 5.3 km/h 89 % 0.0 mm
10:49 18.9 °C 16.9 °C 1026.0 hPa ENE 7.4 km/h 7.4 km/h 88 % 0.0 mm
10:54 19.1 °C 16.7 °C 1026.0 hPa NNE 7.4 km/h 7.4 km/h 86 % 0.0 mm
11:00 19.5 °C 17.1 °C 1026.0 hPa NNE 5.0 km/h 5.0 km/h 86 % 0.0 mm
11:05 19.9 °C 17.1 °C 1026.0 hPa East 3.7 km/h 3.7 km/h 84 % 0.0 mm
11:10 19.9 °C 16.9 °C 1026.0 hPa ENE 7.4 km/h 7.4 km/h 83 % 0.0 mm
11:15 20.0 °C 16.8 °C 1026.0 hPa East 5.6 km/h 5.6 km/h 82 % 0.0 mm
11:20 20.2 °C 16.8 °C 1026.0 hPa ENE 3.7 km/h 3.7 km/h 81 % 0.0 mm
11:25 20.8 °C 17.4 °C 1026.0 hPa ENE 4.7 km/h 4.7 km/h 81 % 0.0 mm
11:30 20.8 °C 17.2 °C 1027.0 hPa ENE 5.6 km/h 5.6 km/h 80 % 0.0 mm
11:35 21.0 °C 17.0 °C 1027.0 hPa ENE 3.7 km/h 3.7 km/h 78 % 0.0 mm
11:40 21.3 °C 17.3 °C 1027.0 hPa NNE 3.7 km/h 3.7 km/h 78 % 0.0 mm
11:46 21.4 °C 17.2 °C 1026.0 hPa ENE 3.7 km/h 3.7 km/h 77 % 0.0 mm
11:51 21.5 °C 17.1 °C 1026.0 hPa East 3.7 km/h 3.7 km/h 76 % 0.0 mm
11:56 21.7 °C 17.3 °C 1026.0 hPa East 3.7 km/h 3.7 km/h 76 % 0.0 mm
12:01 21.6 °C 17.0 °C 1026.0 hPa ENE 5.6 km/h 5.6 km/h 75 % 0.0 mm
12:06 21.8 °C 16.9 °C 1026.0 hPa ESE 5.8 km/h 5.8 km/h 74 % 0.0 mm
12:11 21.8 °C 17.2 °C 1026.0 hPa East 5.0 km/h 5.0 km/h 75 % 0.0 mm
12:16 22.1 °C 17.1 °C 1026.0 hPa NNE 5.6 km/h 5.6 km/h 73 % 0.0 mm
12:21 22.6 °C 17.7 °C 1026.0 hPa NNE 5.6 km/h 5.6 km/h 74 % 0.0 mm
12:26 22.6 °C 17.5 °C 1026.0 hPa NNE 3.7 km/h 3.7 km/h 73 % 0.0 mm
12:31 22.5 °C 17.2 °C 1026.0 hPa ENE 3.7 km/h   72 % 0.0 mm
12:36 23.0 °C 17.4 °C 1026.0 hPa ENE 6.1 km/h 6.1 km/h 71 % 0.0 mm
12:41 23.3 °C 17.5 °C 1026.0 hPa ESE 5.8 km/h 5.8 km/h 70 % 0.0 mm
12:46 23.2 °C 16.9 °C 1026.0 hPa SSE 7.4 km/h 7.4 km/h 68 % 0.0 mm
12:51 23.0 °C 17.0 °C 1026.0 hPa SE 7.4 km/h 7.4 km/h 69 % 0.0 mm
12:56 23.4 °C 17.6 °C 1026.0 hPa ESE 2.6 km/h   70 % 0.0 mm
13:01 23.7 °C 17.7 °C 1026.0 hPa SE 5.6 km/h 5.6 km/h 69 % 0.0 mm
13:06 23.5 °C 17.0 °C 1026.0 hPa ESE 9.3 km/h 9.3 km/h 67 % 0.0 mm
13:11 24.1 °C 17.3 °C 1026.0 hPa West 5.6 km/h 5.6 km/h 66 % 0.0 mm
13:16 24.2 °C 17.2 °C 1026.0 hPa NE 4.2 km/h 4.2 km/h 65 % 0.0 mm
13:21 24.2 °C 17.4 °C 1026.0 hPa NNE 5.6 km/h 5.6 km/h 66 % 0.0 mm
13:26 24.6 °C 17.6 °C 1026.0 hPa ENE 6.4 km/h 6.4 km/h 65 % 0.0 mm
13:31 24.4 °C 17.6 °C 1026.0 hPa NE 5.6 km/h 5.6 km/h 66 % 0.0 mm
13:36 24.9 °C 17.6 °C 1026.0 hPa SSW 9.3 km/h 9.3 km/h 64 % 0.0 mm
13:41 24.5 °C 17.2 °C 1026.0 hPa ENE 6.4 km/h 6.4 km/h 64 % 0.0 mm
13:46 24.5 °C 17.0 °C 1026.0 hPa ESE 7.4 km/h 7.4 km/h 63 % 0.0 mm
13:51 24.9 °C 17.4 °C 1026.0 hPa SE 3.7 km/h 5.3 km/h 63 % 0.0 mm
13:56 24.9 °C 17.4 °C 1026.0 hPa East 7.6 km/h 7.6 km/h 63 % 0.0 mm
14:02 25.0 °C 17.2 °C 1026.0 hPa SSE 7.4 km/h 7.4 km/h 62 % 0.0 mm
14:07 25.1 °C 17.6 °C 1026.0 hPa North 3.7 km/h 3.7 km/h 63 % 0.0 mm
14:12 25.5 °C 17.4 °C 1026.0 hPa ESE 5.6 km/h 5.6 km/h 61 % 0.0 mm
14:17 25.4 °C 17.6 °C 1024.9 hPa ENE 3.7 km/h 3.7 km/h 62 % 0.0 mm
14:22 25.3 °C 17.0 °C 1024.9 hPa East 5.8 km/h 5.8 km/h 60 % 0.0 mm
14:27 25.2 °C 17.4 °C 1024.9 hPa NE 11.1 km/h 11.1 km/h 62 % 0.0 mm
14:32 25.2 °C 16.9 °C 1023.9 hPa ESE 7.4 km/h 7.4 km/h 60 % 0.0 mm
14:37 25.2 °C 17.2 °C 1023.9 hPa SSE 7.4 km/h 7.9 km/h 61 % 0.0 mm
14:42 25.3 °C 17.2 °C 1023.9 hPa SE 7.6 km/h 7.6 km/h 61 % 0.0 mm
14:47 25.4 °C 17.1 °C 1023.9 hPa East 11.1 km/h 11.1 km/h 60 % 0.0 mm
14:52 25.0 °C 16.7 °C 1023.9 hPa SSW 9.3 km/h 9.3 km/h 60 % 0.0 mm
14:57 25.2 °C 16.9 °C 1023.9 hPa South 7.6 km/h 7.6 km/h 60 % 0.0 mm
15:02 25.0 °C 16.4 °C 1024.9 hPa ESE 13.0 km/h 13.0 km/h 59 % 0.0 mm
15:07 25.1 °C 16.8 °C 1024.9 hPa ENE 9.3 km/h 9.5 km/h 60 % 0.0 mm
15:12 25.1 °C 16.5 °C 1024.9 hPa SE 9.3 km/h 9.3 km/h 59 % 0.0 mm
15:17 24.9 °C 16.6 °C 1023.9 hPa ENE 14.8 km/h 14.8 km/h 60 % 0.0 mm
15:22 25.0 °C 16.7 °C 1023.9 hPa NNE 11.1 km/h 11.1 km/h 60 % 0.0 mm
15:27 25.0 °C 16.4 °C 1023.9 hPa ENE 11.1 km/h 11.1 km/h 59 % 0.0 mm
15:32 25.0 °C 16.4 °C 1023.9 hPa NNW 9.3 km/h 9.3 km/h 59 % 0.0 mm
15:37 24.9 °C 16.6 °C 1023.9 hPa SE 14.8 km/h 14.8 km/h 60 % 0.0 mm
15:42 24.9 °C 16.6 °C 1023.9 hPa ESE 10.0 km/h 10.0 km/h 60 % 0.0 mm
15:47 24.8 °C 16.5 °C 1023.9 hPa ENE 13.0 km/h 13.0 km/h 60 % 0.0 mm
15:52 24.7 °C 16.4 °C 1023.9 hPa ENE 11.1 km/h 11.1 km/h 60 % 0.0 mm
15:57 24.7 °C 16.4 °C 1023.9 hPa ESE 13.0 km/h 13.0 km/h 60 % 0.0 mm
16:02 24.8 °C 16.5 °C 1023.9 hPa NE 9.3 km/h 10.0 km/h 60 % 0.0 mm
16:07 24.7 °C 16.4 °C 1023.9 hPa SE 11.9 km/h 11.9 km/h 60 % 0.0 mm
16:12 24.7 °C 16.4 °C 1023.9 hPa ENE 9.3 km/h 9.3 km/h 60 % 0.0 mm
16:17 24.8 °C 16.5 °C 1023.9 hPa ENE 13.0 km/h 13.0 km/h 60 % 0.0 mm
16:22 24.8 °C 16.5 °C 1023.9 hPa ENE 12.2 km/h 12.2 km/h 60 % 0.0 mm
16:27 24.7 °C 16.7 °C 1023.9 hPa ENE 14.8 km/h 14.8 km/h 61 % 0.0 mm
16:32 24.8 °C 16.8 °C 1023.9 hPa ESE 13.0 km/h 13.0 km/h 61 % 0.0 mm
16:37 24.6 °C 16.6 °C 1023.9 hPa ESE 16.7 km/h 16.7 km/h 61 % 0.0 mm
16:42 24.5 °C 16.5 °C 1023.9 hPa ENE 11.1 km/h 11.1 km/h 61 % 0.0 mm
16:47 24.6 °C 16.6 °C 1023.9 hPa SE 14.8 km/h 14.8 km/h 61 % 0.0 mm
16:52 24.4 °C 16.4 °C 1023.9 hPa ESE 14.8 km/h 14.8 km/h 61 % 0.0 mm
16:57 24.3 °C 16.6 °C 1023.9 hPa ESE 11.9 km/h 11.9 km/h 62 % 0.0 mm
17:02 24.3 °C 16.6 °C 1023.9 hPa NE 7.4 km/h 7.4 km/h 62 % 0.0 mm
17:07 24.3 °C 16.6 °C 1023.9 hPa SSE 11.1 km/h 11.1 km/h 62 % 0.0 mm
17:12 24.2 °C 16.4 °C 1023.9 hPa ESE 12.6 km/h 12.6 km/h 62 % 0.0 mm
17:17 24.3 °C 16.8 °C 1023.9 hPa SE 12.2 km/h 12.2 km/h 63 % 0.0 mm
17:22 24.2 °C 16.7 °C 1023.9 hPa SE 9.5 km/h 9.5 km/h 63 % 0.0 mm
17:27 23.9 °C 16.7 °C 1023.9 hPa NE 9.3 km/h 9.3 km/h 64 % 0.0 mm
17:32 23.7 °C 16.5 °C 1023.9 hPa ENE 14.0 km/h 14.0 km/h 64 % 0.0 mm
17:37 23.6 °C 16.6 °C 1023.9 hPa East 9.3 km/h 9.3 km/h 65 % 0.0 mm
17:42 23.6 °C 16.6 °C 1023.9 hPa ESE 11.1 km/h 11.1 km/h 65 % 0.0 mm
17:47 23.3 °C 16.3 °C 1023.9 hPa ESE 9.3 km/h 9.3 km/h 65 % 0.0 mm
17:52 23.3 °C 16.3 °C 1023.9 hPa East 9.3 km/h 9.3 km/h 65 % 0.0 mm
17:57 23.3 °C 16.3 °C 1023.9 hPa East 7.4 km/h 7.4 km/h 65 % 0.0 mm
18:02 23.2 °C 16.3 °C 1023.9 hPa East 11.1 km/h 11.1 km/h 65 % 0.0 mm
18:07 23.1 °C 16.4 °C 1023.9 hPa ESE 11.1 km/h 11.1 km/h 66 % 0.0 mm
18:12 23.0 °C 16.3 °C 1023.9 hPa ENE 9.3 km/h 9.3 km/h 66 % 0.0 mm
18:17 22.9 °C 16.2 °C 1023.9 hPa SE 9.3 km/h 9.3 km/h 66 % 0.0 mm
18:22 22.8 °C 16.1 °C 1023.9 hPa ESE 7.4 km/h 7.4 km/h 66 % 0.0 mm
18:27 22.7 °C 16.3 °C 1023.9 hPa ESE 9.3 km/h 9.3 km/h 67 % 0.0 mm
18:32 22.6 °C 16.2 °C 1023.9 hPa East 9.3 km/h 9.3 km/h 67 % 0.0 mm
18:37 22.5 °C 16.1 °C 1023.9 hPa East 5.6 km/h 5.6 km/h 67 % 0.0 mm
18:42 22.4 °C 15.9 °C 1023.9 hPa East 7.4 km/h 7.4 km/h 67 % 0.0 mm
18:47 22.4 °C 15.9 °C 1023.9 hPa SE 7.4 km/h 7.4 km/h 67 % 0.0 mm
18:52 22.4 °C 15.9 °C 1023.9 hPa ESE 5.6 km/h 5.6 km/h 67 % 0.0 mm
18:57 22.2 °C 15.8 °C 1023.9 hPa SSE 1.9 km/h 1.9 km/h 67 % 0.0 mm
19:02 22.1 °C 15.7 °C 1023.9 hPa ESE 5.6 km/h 5.6 km/h 67 % 0.0 mm
19:07 22.0 °C 15.6 °C 1023.9 hPa WSW 4.2 km/h 4.2 km/h 67 % 0.0 mm
19:12 22.0 °C 15.6 °C 1024.9 hPa SSE 4.2 km/h 4.2 km/h 67 % 0.0 mm
19:17 21.9 °C 15.7 °C 1024.9 hPa SSE 1.4 km/h   68 % 0.0 mm
19:22 21.7 °C 15.6 °C 1024.9 hPa SSE 3.9 km/h 3.9 km/h 68 % 0.0 mm
19:27 21.6 °C 15.7 °C 1024.9 hPa SW 3.7 km/h 3.7 km/h 69 % 0.0 mm
19:32 21.5 °C 15.6 °C 1024.9 hPa SW 3.7 km/h   69 % 0.0 mm
19:37 21.4 °C 15.5 °C 1024.9 hPa South 1.9 km/h 1.9 km/h 69 % 0.0 mm
19:42 21.3 °C 15.6 °C 1026.0 hPa Calm     70 % 0.0 mm
19:47 21.2 °C 15.5 °C 1026.0 hPa Calm     70 % 0.0 mm
19:52 21.1 °C 15.4 °C 1026.0 hPa SW 1.9 km/h   70 % 0.0 mm
19:57 21.0 °C 15.6 °C 1026.0 hPa SW 1.4 km/h 1.9 km/h 71 % 0.0 mm
20:02 20.9 °C 15.4 °C 1026.0 hPa SW 3.7 km/h 3.7 km/h 71 % 0.0 mm
20:07 20.8 °C 15.3 °C 1026.0 hPa Calm     71 % 0.0 mm
20:12 20.7 °C 15.3 °C 1026.0 hPa WSW 3.7 km/h 3.7 km/h 71 % 0.0 mm
20:17 20.7 °C 15.4 °C 1026.0 hPa WSW 1.9 km/h   72 % 0.0 mm
20:22 20.6 °C 15.4 °C 1026.0 hPa WSW 1.9 km/h   72 % 0.0 mm
20:27 20.5 °C 15.3 °C 1026.0 hPa Calm     72 % 0.0 mm
20:32 20.4 °C 15.4 °C 1026.0 hPa Calm     73 % 0.0 mm
20:37 20.4 °C 15.4 °C 1026.0 hPa Calm     73 % 0.0 mm
20:42 20.3 °C 15.3 °C 1026.0 hPa Calm     73 % 0.0 mm
20:47 20.2 °C 15.2 °C 1026.0 hPa WNW 1.9 km/h 1.9 km/h 73 % 0.0 mm
20:52 20.2 °C 15.4 °C 1026.0 hPa Calm     74 % 0.0 mm
20:57 20.1 °C 15.3 °C 1026.0 hPa Calm     74 % 0.0 mm
20:59 20.1 °C 15.3 °C 1026.0 hPa Calm     74 % 0.0 mm
21:04 20.0 °C 15.4 °C 1026.0 hPa Calm     75 % 0.0 mm
21:09 19.9 °C 15.6 °C 1026.0 hPa Calm     76 % 0.0 mm
21:14 19.9 °C 15.6 °C 1026.0 hPa Calm     76 % 0.0 mm
21:19 19.8 °C 15.4 °C 1026.0 hPa WNW 1.9 km/h 1.9 km/h 76 % 0.0 mm
21:24 19.8 °C 15.4 °C 1026.0 hPa NW 1.9 km/h   76 % 0.0 mm
21:29 19.7 °C 15.3 °C 1024.9 hPa NW 3.7 km/h   76 % 0.0 mm
21:34 19.7 °C 15.6 °C 1024.9 hPa NW 1.9 km/h   77 % 0.0 mm
21:39 19.7 °C 15.3 °C 1024.9 hPa NW 3.7 km/h 3.7 km/h 76 % 0.0 mm
21:44 19.6 °C 15.4 °C 1026.0 hPa Calm     77 % 0.0 mm
21:49 19.6 °C 15.4 °C 1026.0 hPa NW 1.9 km/h   77 % 0.0 mm
21:54 19.6 °C 15.4 °C 1026.0 hPa Calm     77 % 0.0 mm
21:59 19.6 °C 15.4 °C 1026.0 hPa Calm     77 % 0.0 mm
22:04 19.6 °C 15.4 °C 1026.0 hPa Calm     77 % 0.0 mm
22:09 19.6 °C 15.4 °C 1026.0 hPa Calm     77 % 0.0 mm
22:14 19.6 °C 15.7 °C 1024.9 hPa North 1.9 km/h 1.9 km/h 78 % 0.0 mm
22:19 19.6 °C 15.7 °C 1024.9 hPa North 1.9 km/h   78 % 0.0 mm
22:24 19.6 °C 15.7 °C 1024.9 hPa Calm     78 % 0.0 mm
22:29 19.5 °C 15.6 °C 1026.0 hPa North 1.9 km/h 1.9 km/h 78 % 0.0 mm
22:34 19.5 °C 15.6 °C 1026.0 hPa North 1.9 km/h   78 % 0.0 mm
22:39 19.4 °C 15.4 °C 1026.0 hPa Calm     78 % 0.0 mm
22:44 19.3 °C 15.4 °C 1026.0 hPa Calm     78 % 0.0 mm
22:49 19.3 °C 15.6 °C 1026.0 hPa Calm     79 % 0.0 mm
22:54 19.2 °C 15.4 °C 1026.0 hPa Calm     79 % 0.0 mm
22:59 19.1 °C 15.4 °C 1026.0 hPa Calm     79 % 0.0 mm
23:04 19.0 °C 15.3 °C 1026.0 hPa Calm     79 % 0.0 mm
23:09 19.0 °C 15.3 °C 1026.0 hPa NNW 1.9 km/h   79 % 0.0 mm
23:14 18.9 °C 15.4 °C 1026.0 hPa NNW 1.9 km/h 1.9 km/h 80 % 0.0 mm
23:19 18.8 °C 15.3 °C 1026.0 hPa WNW 2.6 km/h 2.6 km/h 80 % 0.0 mm
23:24 18.6 °C 15.1 °C 1026.0 hPa SW 3.7 km/h 3.7 km/h 80 % 0.0 mm
23:29 18.4 °C 14.9 °C 1026.0 hPa WSW 3.7 km/h 3.7 km/h 80 % 0.0 mm
23:34 18.3 °C 14.8 °C 1026.0 hPa SW 3.7 km/h 3.7 km/h 80 % 0.0 mm
23:39 18.2 °C 14.9 °C 1026.0 hPa SW 3.7 km/h 3.7 km/h 81 % 0.0 mm
23:44 18.2 °C 14.9 °C 1026.0 hPa SW 1.9 km/h 1.9 km/h 81 % 0.0 mm
23:49 18.1 °C 15.0 °C 1026.0 hPa Calm     82 % 0.0 mm
23:54 18.1 °C 15.0 °C 1026.0 hPa SW 3.2 km/h 3.2 km/h 82 % 0.0 mm
23:59 18.1 °C 15.0 °C 1026.0 hPa SW 3.2 km/h 3.2 km/h 82 % 0.0 mm
Meteo Sesrovires
Elogis d' Weather Underground - 4 mb

Guio original per  Jim McMurry - jmcmurry@mwt.net Adaptat per a la plantilla per  Wim van der Kuil - Leuven-Template.eu

Trobareu la nostra informacio del temps tambe a:

Weather Underground

AWEKAS